Time;durP1;ratioP1;P1;durP2;ratioP2;P2;SDS_P1;SDS_P2;PMS_P1;PMS_P2;Temp;Humidity;BMP_temperature;BMP_pressure;BME280_temperature;BME280_humidity;BME280_pressure;Samples;Min_cycle;Max_cycle;Signal;HPM_P1;HPM_P2
2022/12/18 00:00:47;;;;;;;65.60;22.75;;;-2.60;99.90;;;;;;5132961;27;20031;-88
2022/12/18 00:03:14;;;;;;;72.82;27.92;;;-2.60;99.90;;;;;;5113489;27;20043;-88
2022/12/18 00:05:50;;;;;;;68.22;28.08;;;-2.70;99.90;;;;;;5114927;27;20043;-87
2022/12/18 00:08:16;;;;;;;66.35;24.00;;;-2.70;99.90;;;;;;5116713;27;20031;-88
2022/12/18 00:10:42;;;;;;;76.53;27.35;;;-2.70;99.90;;;;;;5094087;28;20031;-88
2022/12/18 00:13:08;;;;;;;81.00;31.20;;;-2.70;99.90;;;;;;5120378;27;20031;-87
2022/12/18 00:15:38;;;;;;;67.75;27.35;;;-2.70;99.90;;;;;;5077374;28;20035;-87
2022/12/18 00:18:04;;;;;;;65.78;29.02;;;-2.70;99.90;;;;;;5112225;28;20047;-87
2022/12/18 00:20:30;;;;;;;75.95;30.35;;;-2.70;99.90;;;;;;5128436;27;20399;-88
2022/12/18 00:22:56;;;;;;;66.35;24.95;;;-2.70;99.90;;;;;;5132951;27;20035;-88
2022/12/18 00:25:22;;;;;;;72.38;28.23;;;-2.70;99.90;;;;;;5087481;27;20040;-87
2022/12/18 00:27:47;;;;;;;66.47;27.48;;;-2.70;99.90;;;;;;5132674;27;20051;-88
2022/12/18 00:30:14;;;;;;;75.88;28.10;;;-2.80;99.90;;;;;;5132290;27;20036;-88
2022/12/18 00:32:39;;;;;;;63.30;25.25;;;-2.80;99.90;;;;;;5117670;27;20031;-88
2022/12/18 00:35:07;;;;;;;67.45;24.63;;;-2.90;99.90;;;;;;5112501;28;20035;-87
2022/12/18 00:37:35;;;;;;;73.13;27.20;;;-2.90;99.90;;;;;;5120902;27;20118;-88
2022/12/18 00:40:02;;;;;;;73.05;27.98;;;-2.90;99.90;;;;;;5131792;27;20074;-87
2022/12/18 00:45:12;;;;;;;83.20;29.00;;;-3.00;99.90;;;;;;5118328;27;20044;-88
2022/12/18 00:47:38;;;;;;;60.50;26.98;;;-3.00;99.90;;;;;;5092977;28;20035;-88
2022/12/18 00:50:04;;;;;;;82.65;31.85;;;-3.00;99.90;;;;;;5123618;27;20035;-87
2022/12/18 00:52:29;;;;;;;70.28;26.33;;;-3.00;99.90;;;;;;5131303;27;20046;-87
2022/12/18 00:54:55;;;;;;;68.90;24.58;;;-3.00;99.90;;;;;;5131426;27;20039;-87
2022/12/18 00:57:20;;;;;;;72.75;27.90;;;-3.10;99.90;;;;;;5130931;27;20039;-88
2022/12/18 00:59:46;;;;;;;60.47;24.45;;;-3.10;99.90;;;;;;5096262;27;20035;-88
2022/12/18 01:02:11;;;;;;;73.90;26.40;;;-3.10;99.90;;;;;;5126622;27;20085;-88
2022/12/18 01:04:37;;;;;;;67.20;25.65;;;-3.10;99.90;;;;;;5111132;28;20515;-88
2022/12/18 01:07:03;;;;;;;70.60;25.75;;;-3.10;99.90;;;;;;5110822;28;20044;-87
2022/12/18 01:09:28;;;;;;;67.88;27.25;;;-3.20;99.90;;;;;;5118712;27;20078;-88
2022/12/18 01:11:54;;;;;;;67.32;24.17;;;-3.20;99.90;;;;;;5130904;27;20041;-88
2022/12/18 01:14:19;;;;;;;61.47;24.00;;;-3.20;99.90;;;;;;5130712;27;20035;-88
2022/12/18 01:16:45;;;;;;;59.42;23.88;;;-3.20;99.90;;;;;;5101745;28;20112;-88
2022/12/18 01:19:10;;;;;;;56.75;21.90;;;-3.30;99.90;;;;;;5111116;28;20604;-88
2022/12/18 01:21:36;;;;;;;61.13;25.08;;;-3.30;99.90;;;;;;5110866;28;20036;-88
2022/12/18 01:24:02;;;;;;;62.15;24.10;;;-3.30;99.90;;;;;;5104026;28;20141;-89
2022/12/18 01:26:29;;;;;;;58.53;24.17;;;-3.30;99.90;;;;;;5113173;27;20149;-88
2022/12/18 01:28:56;;;;;;;62.97;23.13;;;-3.30;99.90;;;;;;5130864;27;20039;-88
2022/12/18 01:31:29;;;;;;;64.38;26.65;;;-3.40;99.90;;;;;;5130631;28;20616;-88
2022/12/18 01:33:55;;;;;;;53.42;21.80;;;-3.40;99.90;;;;;;5131321;28;20442;-87
2022/12/18 01:36:27;;;;;;;59.13;22.65;;;-3.40;99.90;;;;;;5098958;28;20031;-88
2022/12/18 01:38:53;;;;;;;60.42;23.95;;;-3.40;99.90;;;;;;5115149;28;20050;-88
2022/12/18 01:41:23;;;;;;;67.70;25.60;;;-3.40;99.90;;;;;;5117756;27;20031;-88
2022/12/18 01:43:53;;;;;;;57.53;23.58;;;-3.40;99.90;;;;;;5099747;27;20481;-88
2022/12/18 01:46:21;;;;;;;57.08;22.88;;;-3.50;99.90;;;;;;5132097;27;20039;-87
2022/12/18 01:48:54;;;;;;;59.05;25.00;;;-3.40;99.90;;;;;;5114385;28;20124;-87
2022/12/18 01:51:20;;;;;;;68.72;26.30;;;-3.50;99.90;;;;;;5114737;28;20523;-87
2022/12/18 01:53:46;;;;;;;69.68;28.23;;;-3.50;99.90;;;;;;5124954;27;20054;-88
2022/12/18 01:56:15;;;;;;;64.35;25.73;;;-3.50;99.90;;;;;;5100088;27;20035;-88
2022/12/18 01:58:48;;;;;;;61.67;23.98;;;-3.60;99.90;;;;;;5135173;27;20125;-87
2022/12/18 02:01:14;;;;;;;;;;;-3.60;99.90;;;;;;5099640;28;20453;-87
2022/12/18 02:03:43;;;;;;;65.97;25.05;;;-3.60;99.90;;;;;;5095995;28;20002;-88
2022/12/18 02:06:27;;;;;;;59.30;22.58;;;-3.60;99.90;;;;;;5114835;27;20039;-88
2022/12/18 02:09:06;;;;;;;72.80;27.30;;;-3.70;99.90;;;;;;5134201;27;20153;-88
2022/12/18 02:12:00;;;;;;;61.25;23.20;;;-3.70;99.90;;;;;;5116428;27;20031;-88
2022/12/18 02:14:41;;;;;;;58.40;24.30;;;-3.70;99.90;;;;;;5119288;27;20062;-87
2022/12/18 02:17:18;;;;;;;59.92;21.52;;;-3.80;99.90;;;;;;5116952;27;20680;-88
2022/12/18 02:20:05;;;;;;;70.60;25.67;;;-3.80;99.90;;;;;;5132670;27;20042;-88
2022/12/18 02:22:55;;;;;;;63.15;24.85;;;-3.80;99.90;;;;;;5114179;28;20054;-88
2022/12/18 02:25:59;;;;;;;58.25;22.52;;;-3.90;99.90;;;;;;5104683;27;20071;-88
2022/12/18 02:28:30;;;;;;;57.78;22.05;;;-3.90;99.90;;;;;;5116272;27;20135;-88
2022/12/18 02:30:59;;;;;;;58.53;21.65;;;-4.00;99.90;;;;;;5115682;27;20084;-88
2022/12/18 02:33:28;;;;;;;53.05;21.80;;;-4.00;99.90;;;;;;5115713;27;20045;-88
2022/12/18 02:35:56;;;;;;;61.33;23.88;;;-4.00;99.90;;;;;;5114205;28;20194;-88
2022/12/18 02:38:24;;;;;;;54.22;23.10;;;-4.00;99.90;;;;;;5108210;27;20695;-87
2022/12/18 02:40:52;;;;;;;58.22;24.15;;;-4.10;99.90;;;;;;5134582;27;20444;-88
2022/12/18 02:43:18;;;;;;;51.70;23.02;;;-4.10;99.90;;;;;;5126362;27;20042;-87
2022/12/18 02:45:50;;;;;;;51.50;22.23;;;-4.10;99.90;;;;;;5113532;28;20035;-88
2022/12/18 02:48:18;;;;;;;49.37;22.07;;;-4.10;99.90;;;;;;5113183;28;20429;-88
2022/12/18 02:51:15;;;;;;;47.30;19.60;;;-4.20;99.90;;;;;;5113365;28;20042;-88
2022/12/18 02:53:58;;;;;;;53.85;22.52;;;-4.20;99.90;;;;;;5113458;28;20035;-88
2022/12/18 02:56:38;;;;;;;52.17;20.92;;;-4.20;99.90;;;;;;5131963;27;20089;-88
2022/12/18 02:59:22;;;;;;;45.28;18.85;;;-4.20;99.90;;;;;;5134234;27;20053;-88
2022/12/18 03:02:18;;;;;;;40.55;18.88;;;-4.30;99.90;;;;;;5105874;27;20074;-88
2022/12/18 03:04:52;;;;;;;40.33;19.00;;;-4.30;99.90;;;;;;5115355;27;20054;-88
2022/12/18 03:07:32;;;;;;;42.58;18.33;;;-4.30;99.90;;;;;;5131405;27;20070;-87
2022/12/18 03:09:59;;;;;;;43.88;17.00;;;-4.30;99.90;;;;;;5110642;27;20043;-87
2022/12/18 03:12:32;;;;;;;41.70;17.60;;;-4.30;99.90;;;;;;5133807;27;20119;-88
2022/12/18 03:15:21;;;;;;;43.78;19.17;;;-4.40;99.90;;;;;;5123087;27;20032;-87
2022/12/18 03:17:54;;;;;;;35.28;16.05;;;-4.40;99.90;;;;;;5078368;28;20047;-87
2022/12/18 03:20:23;;;;;;;56.03;19.30;;;-4.40;99.90;;;;;;5112705;28;20075;-88
2022/12/18 03:22:53;;;;;;;42.60;17.63;;;-4.40;99.90;;;;;;5112634;28;20104;-88
2022/12/18 03:25:20;;;;;;;47.28;19.38;;;-4.40;99.90;;;;;;5098452;27;20034;-88
2022/12/18 03:27:52;;;;;;;43.80;17.55;;;-4.50;99.90;;;;;;5133186;27;20178;-88
2022/12/18 03:30:18;;;;;;;35.03;16.48;;;-4.50;99.90;;;;;;5115308;27;20050;-88
2022/12/18 03:32:50;;;;;;;39.58;17.42;;;-4.50;99.90;;;;;;5097351;28;20039;-88
2022/12/18 03:35:21;;;;;;;39.72;19.65;;;-4.50;99.90;;;;;;5113215;28;20515;-88
2022/12/18 03:37:46;;;;;;;38.20;16.15;;;-4.50;99.90;;;;;;5122731;27;20042;-88
2022/12/18 03:40:12;;;;;;;30.73;14.88;;;-4.50;99.90;;;;;;5133108;27;20051;-88
2022/12/18 03:42:52;;;;;;;36.40;16.05;;;-4.60;99.90;;;;;;5133266;27;20042;-88
2022/12/18 03:45:34;;;;;;;31.20;15.63;;;-4.60;99.90;;;;;;5115905;27;20110;-88
2022/12/18 03:48:12;;;;;;;37.10;17.35;;;-4.60;99.90;;;;;;5112615;28;20097;-88
2022/12/18 03:51:13;;;;;;;37.45;17.52;;;-4.60;99.90;;;;;;5119519;27;20118;-88
2022/12/18 03:53:59;;;;;;;33.25;15.40;;;-4.60;99.90;;;;;;5094431;28;20082;-88
2022/12/18 03:56:29;;;;;;;38.58;15.00;;;-4.60;99.90;;;;;;5115383;27;20040;-88
2022/12/18 03:58:56;;;;;;;33.33;16.15;;;-4.60;99.90;;;;;;5098882;28;20035;-88
2022/12/18 04:01:28;;;;;;;34.92;14.82;;;-4.60;99.90;;;;;;5112001;28;20054;-88
2022/12/18 04:03:56;;;;;;;36.10;16.00;;;-4.60;99.90;;;;;;5121150;27;20474;-88
2022/12/18 04:06:22;;;;;;;38.63;16.45;;;-4.60;99.90;;;;;;5114523;27;20050;-88
2022/12/18 04:08:48;;;;;;;37.03;14.98;;;-4.60;99.90;;;;;;5106589;28;20073;-88
2022/12/18 04:11:14;;;;;;;35.83;16.35;;;-4.70;99.90;;;;;;5093711;28;20408;-88
2022/12/18 04:13:42;;;;;;;35.22;14.45;;;-4.70;99.90;;;;;;5093986;28;20089;-88
2022/12/18 04:16:09;;;;;;;32.95;15.30;;;-4.70;99.90;;;;;;5093768;28;20038;-88
2022/12/18 04:18:35;;;;;;;36.40;16.02;;;-4.70;99.90;;;;;;5111933;28;20045;-88
2022/12/18 04:21:01;;;;;;;34.03;15.00;;;-4.70;99.90;;;;;;5093490;28;20043;-89
2022/12/18 04:23:28;;;;;;;34.28;15.00;;;-4.80;99.90;;;;;;5111544;28;20046;-89
2022/12/18 04:25:53;;;;;;;36.55;16.02;;;-4.80;99.90;;;;;;5112108;28;20561;-88
2022/12/18 04:28:20;;;;;;;33.83;15.23;;;-4.80;99.90;;;;;;5111119;28;20051;-88
2022/12/18 04:30:49;;;;;;;31.70;13.63;;;-4.90;99.90;;;;;;5111999;28;20096;-88
2022/12/18 04:33:14;;;;;;;33.00;14.50;;;-4.90;99.90;;;;;;5111385;28;20599;-88
2022/12/18 04:35:41;;;;;;;36.53;16.80;;;-4.90;99.90;;;;;;5111637;28;20036;-88
2022/12/18 04:38:08;;;;;;;31.83;13.80;;;-4.90;99.90;;;;;;5112043;28;20036;-88
2022/12/18 04:40:35;;;;;;;34.35;14.13;;;-4.90;99.90;;;;;;5129887;27;20426;-88
2022/12/18 04:43:01;;;;;;;34.28;14.68;;;-4.90;99.90;;;;;;5131930;27;20062;-88
2022/12/18 04:45:30;;;;;;;35.10;15.90;;;-4.90;99.90;;;;;;5128978;27;20082;-88
2022/12/18 04:47:57;;;;;;;30.70;14.38;;;-4.90;99.90;;;;;;5111800;28;20042;-88
2022/12/18 04:50:23;;;;;;;33.45;13.80;;;-4.90;99.90;;;;;;5093249;28;20068;-88
2022/12/18 04:52:49;;;;;;;33.72;15.60;;;-4.90;99.90;;;;;;5127924;27;20102;-88
2022/12/18 04:55:14;;;;;;;28.40;14.13;;;-4.90;99.90;;;;;;5131738;27;20046;-88
2022/12/18 04:57:40;;;;;;;31.48;15.35;;;-5.00;99.90;;;;;;5131794;27;20126;-88
2022/12/18 05:00:06;;;;;;;33.90;14.60;;;-5.00;99.90;;;;;;5112808;27;20043;-88
2022/12/18 05:02:32;;;;;;;32.72;15.30;;;-5.00;99.90;;;;;;5110726;28;20054;-88
2022/12/18 05:04:57;;;;;;;33.47;14.80;;;-5.00;99.90;;;;;;5123771;27;20031;-88
2022/12/18 05:07:23;;;;;;;34.45;13.98;;;-5.00;99.90;;;;;;5113595;27;20531;-88
2022/12/18 05:09:48;;;;;;;27.30;12.20;;;-5.00;99.90;;;;;;5131256;27;20023;-88
2022/12/18 05:12:14;;;;;;;32.30;13.32;;;-5.00;99.90;;;;;;5096492;28;20496;-88
2022/12/18 05:14:40;;;;;;;27.98;13.38;;;-5.00;99.90;;;;;;5110878;28;20075;-88
2022/12/18 05:17:05;;;;;;;33.25;12.85;;;-5.00;99.90;;;;;;5119039;27;20035;-88
2022/12/18 05:19:31;;;;;;;31.80;13.95;;;-5.10;99.90;;;;;;5112871;27;20088;-88
2022/12/18 05:21:57;;;;;;;26.95;13.80;;;-5.10;99.90;;;;;;5130236;27;20035;-88
2022/12/18 05:24:23;;;;;;;29.33;13.75;;;-5.10;99.90;;;;;;5123289;27;20110;-89
2022/12/18 05:26:48;;;;;;;25.88;10.95;;;-5.10;99.90;;;;;;5113110;28;20121;-88
2022/12/18 05:29:14;;;;;;;29.17;13.65;;;-5.20;99.90;;;;;;5111947;28;20080;-88
2022/12/18 05:31:39;;;;;;;32.90;14.43;;;-5.20;99.90;;;;;;5130872;27;20035;-88
2022/12/18 05:34:05;;;;;;;32.22;13.88;;;-5.20;99.90;;;;;;5130852;28;20110;-88
2022/12/18 05:36:31;;;;;;;36.17;15.07;;;-5.30;99.90;;;;;;5120470;28;20035;-88
2022/12/18 05:38:57;;;;;;;27.08;13.82;;;-5.30;99.90;;;;;;5110422;28;20401;-88
2022/12/18 05:41:22;;;;;;;30.38;13.80;;;-5.30;99.90;;;;;;5113316;28;20122;-87
2022/12/18 05:43:48;;;;;;;27.98;13.55;;;-5.30;99.90;;;;;;5131669;28;20031;-88
2022/12/18 05:46:19;;;;;;;30.48;13.73;;;-5.30;99.90;;;;;;5130973;28;20063;-88
2022/12/18 05:48:46;;;;;;;32.22;15.10;;;-5.30;99.90;;;;;;5115318;28;20036;-88
2022/12/18 05:51:14;;;;;;;29.95;12.98;;;-5.30;99.90;;;;;;5110360;28;20036;-88
2022/12/18 05:53:40;;;;;;;28.42;13.65;;;-5.40;99.90;;;;;;5122990;28;20043;-88
2022/12/18 05:56:09;;;;;;;31.80;13.77;;;-5.40;99.90;;;;;;5131620;28;20042;-88
2022/12/18 05:58:36;;;;;;;24.00;13.13;;;-5.30;99.90;;;;;;5113159;28;20042;-87
2022/12/18 06:01:13;;;;;;;28.35;14.68;;;-5.40;99.90;;;;;;5131307;28;20039;-87
2022/12/18 06:03:39;;;;;;;29.80;12.98;;;-5.40;99.90;;;;;;5131612;28;20485;-88
2022/12/18 06:06:14;;;;;;;24.35;13.18;;;-5.40;99.90;;;;;;5131138;28;20104;-88
2022/12/18 06:08:39;;;;;;;29.42;13.30;;;-5.40;99.90;;;;;;5131861;28;20323;-87
2022/12/18 06:11:05;;;;;;;31.05;13.57;;;-5.40;99.90;;;;;;5130853;28;20096;-87
2022/12/18 06:13:30;;;;;;;28.63;14.27;;;-5.40;99.90;;;;;;5112637;28;20042;-88
2022/12/18 06:15:56;;;;;;;29.67;14.32;;;-5.40;99.90;;;;;;5131823;28;20085;-88
2022/12/18 06:18:21;;;;;;;24.85;11.52;;;-5.40;99.90;;;;;;5094043;28;20047;-88
2022/12/18 06:20:57;;;;;;;29.92;13.15;;;-5.40;99.90;;;;;;5110667;28;20036;-88
2022/12/18 06:23:23;;;;;;;32.05;14.82;;;-5.40;99.90;;;;;;5118462;27;20853;-88
2022/12/18 06:25:49;;;;;;;24.75;12.50;;;-5.40;99.90;;;;;;5127440;27;20035;-87
2022/12/18 06:28:14;;;;;;;25.40;11.27;;;-5.40;99.90;;;;;;5133818;27;20085;-87
2022/12/18 06:30:43;;;;;;;34.58;14.38;;;-5.40;99.90;;;;;;5118573;27;20040;-88
2022/12/18 06:33:09;;;;;;;27.17;13.25;;;-5.40;99.90;;;;;;5094649;28;20649;-88
2022/12/18 06:35:35;;;;;;;27.45;11.18;;;-5.40;99.90;;;;;;5113243;28;20119;-88
2022/12/18 06:38:01;;;;;;;22.65;11.35;;;-5.50;99.90;;;;;;5121994;27;20507;-88
2022/12/18 06:40:27;;;;;;;28.05;11.13;;;-5.50;99.90;;;;;;5113294;28;20069;-88
2022/12/18 06:42:53;;;;;;;26.55;12.55;;;-5.50;99.90;;;;;;5129271;27;20050;-88
2022/12/18 06:45:18;;;;;;;21.90;11.20;;;-5.50;99.90;;;;;;5115460;27;20043;-87
2022/12/18 06:47:44;;;;;;;23.33;11.43;;;-5.50;99.90;;;;;;5086851;28;20078;-88
2022/12/18 06:50:09;;;;;;;22.00;10.68;;;-5.50;99.90;;;;;;5113391;28;20050;-88
2022/12/18 06:52:36;;;;;;;25.17;12.20;;;-5.60;99.90;;;;;;5122445;27;20118;-88
2022/12/18 06:55:02;;;;;;;29.00;13.35;;;-5.50;99.90;;;;;;5112953;28;20069;-88
2022/12/18 06:57:28;;;;;;;27.60;13.27;;;-5.60;99.90;;;;;;5113662;28;20036;-88
2022/12/18 06:59:54;;;;;;;25.27;12.38;;;-5.60;99.90;;;;;;5117696;27;20031;-88
2022/12/18 07:02:19;;;;;;;27.03;13.57;;;-5.50;99.90;;;;;;5115228;27;20412;-88
2022/12/18 07:04:45;;;;;;;21.63;11.82;;;-5.50;99.90;;;;;;5098174;27;20043;-88
2022/12/18 07:07:10;;;;;;;24.80;11.75;;;-5.50;99.90;;;;;;5133295;27;20087;-87
2022/12/18 07:09:36;;;;;;;29.50;13.30;;;-5.50;99.90;;;;;;5133331;27;20697;-87
2022/12/18 07:12:02;;;;;;;24.80;12.67;;;-5.50;99.90;;;;;;5132056;27;20035;-88
2022/12/18 07:14:27;;;;;;;23.08;10.55;;;-5.50;99.90;;;;;;5133414;27;20038;-88
2022/12/18 07:16:53;;;;;;;20.88;9.82;;;-5.50;99.90;;;;;;5133171;27;20035;-87
2022/12/18 07:19:19;;;;;;;21.52;11.43;;;-5.50;99.90;;;;;;5118266;27;20515;-87
2022/12/18 07:21:44;;;;;;;23.87;11.87;;;-5.50;99.90;;;;;;5092413;28;20054;-88
2022/12/18 07:24:10;;;;;;;26.33;13.33;;;-5.50;99.90;;;;;;5112074;28;20044;-88
2022/12/18 07:26:35;;;;;;;27.60;11.75;;;-5.50;99.90;;;;;;5094566;28;20123;-88
2022/12/18 07:29:01;;;;;;;22.50;9.65;;;-5.40;99.90;;;;;;5112472;28;20097;-87
2022/12/18 07:31:27;;;;;;;23.00;10.13;;;-5.40;99.90;;;;;;5106602;27;20054;-88
2022/12/18 07:33:52;;;;;;;23.75;11.90;;;-5.40;99.90;;;;;;5114015;27;20074;-88
2022/12/18 07:36:19;;;;;;;22.52;11.02;;;-5.40;99.90;;;;;;5109996;28;20070;-87
2022/12/18 07:38:47;;;;;;;21.20;11.13;;;-5.40;99.90;;;;;;5127713;27;20043;-87
2022/12/18 07:41:14;;;;;;;24.65;10.27;;;-5.40;99.90;;;;;;5114603;27;20493;-88
2022/12/18 07:43:40;;;;;;;22.20;11.30;;;-5.30;99.90;;;;;;5101065;28;20046;-88
2022/12/18 07:46:07;;;;;;;20.13;10.43;;;-5.30;99.90;;;;;;5112248;28;20074;-88
2022/12/18 07:48:33;;;;;;;22.95;10.80;;;-5.30;99.90;;;;;;5112439;28;20043;-87
2022/12/18 07:51:04;;;;;;;23.25;11.40;;;-5.30;99.90;;;;;;5111003;27;20040;-87
2022/12/18 07:53:29;;;;;;;24.95;12.52;;;-5.20;99.90;;;;;;5111635;28;20035;-87
2022/12/18 07:56:01;;;;;;;22.33;10.70;;;-5.20;99.90;;;;;;5123435;27;20038;-86
2022/12/18 07:58:26;;;;;;;22.17;10.82;;;-5.20;99.90;;;;;;5132264;27;20058;-86
2022/12/18 08:00:52;;;;;;;22.15;10.68;;;-5.20;99.90;;;;;;5132292;27;20821;-87
2022/12/18 08:03:18;;;;;;;26.63;10.90;;;-5.20;99.90;;;;;;5095637;28;20093;-87
2022/12/18 08:05:44;;;;;;;23.38;9.45;;;-5.10;99.90;;;;;;5111993;28;20039;-87
2022/12/18 08:08:10;;;;;;;23.88;11.07;;;-5.10;99.90;;;;;;5111136;27;20051;-87
2022/12/18 08:10:35;;;;;;;25.15;12.23;;;-5.00;99.90;;;;;;5111026;28;20059;-87
2022/12/18 08:13:01;;;;;;;21.13;11.03;;;-5.00;99.90;;;;;;5118345;27;20028;-87
2022/12/18 08:15:27;;;;;;;21.63;10.68;;;-5.00;99.90;;;;;;5112936;27;20036;-87
2022/12/18 08:17:55;;;;;;;20.63;9.95;;;-5.00;99.90;;;;;;5094339;28;20097;-87
2022/12/18 08:20:21;;;;;;;22.58;11.40;;;-4.90;99.90;;;;;;5113615;27;20083;-88
2022/12/18 08:22:47;;;;;;;21.75;11.38;;;-4.90;99.90;;;;;;5132332;27;20032;-87
2022/12/18 08:25:12;;;;;;;24.90;12.15;;;-4.90;99.90;;;;;;5132809;27;20088;-87
2022/12/18 08:27:38;;;;;;;25.08;12.57;;;-4.80;99.90;;;;;;5105755;27;20427;-88
2022/12/18 08:30:05;;;;;;;27.58;11.70;;;-4.80;99.90;;;;;;5140390;27;20042;-88
2022/12/18 08:32:32;;;;;;;23.88;11.02;;;-4.70;99.90;;;;;;5143405;27;20034;-87
2022/12/18 08:34:58;;;;;;;23.55;10.77;;;-4.70;99.90;;;;;;5131983;27;20047;-88
2022/12/18 08:37:24;;;;;;;19.13;9.95;;;-4.70;99.90;;;;;;5132615;27;20103;-88
2022/12/18 08:39:49;;;;;;;22.15;11.93;;;-4.60;99.90;;;;;;5129122;27;20126;-88
2022/12/18 08:44:59;;;;;;;20.02;9.68;;;-4.50;99.90;;;;;;5140332;27;20050;-89
2022/12/18 08:47:25;;;;;;;18.88;9.65;;;-4.50;99.90;;;;;;5150184;27;20046;-88
2022/12/18 08:49:51;;;;;;;16.58;8.55;;;-4.40;99.90;;;;;;5151871;27;20369;-88
2022/12/18 08:52:17;;;;;;;19.27;9.40;;;-4.40;99.90;;;;;;5132158;27;20056;-87
2022/12/18 08:54:42;;;;;;;20.13;9.63;;;-4.40;99.90;;;;;;5131398;27;20035;-88
2022/12/18 08:57:08;;;;;;;21.90;9.30;;;-4.30;99.90;;;;;;5131300;27;20054;-88
2022/12/18 08:59:33;;;;;;;20.60;9.00;;;-4.30;99.90;;;;;;5136309;27;20034;-87
2022/12/18 09:01:59;;;;;;;18.77;9.60;;;-4.20;99.90;;;;;;5147460;27;20443;-86
2022/12/18 09:04:25;;;;;;;18.40;9.65;;;-4.10;99.90;;;;;;5142163;27;20075;-88
2022/12/18 09:06:50;;;;;;;18.95;9.00;;;-4.10;99.90;;;;;;5111758;27;20048;-87
2022/12/18 09:09:16;;;;;;;17.05;9.02;;;-4.00;99.90;;;;;;5111128;28;20119;-88
2022/12/18 09:11:41;;;;;;;18.10;9.35;;;-3.90;99.90;;;;;;5110012;28;20460;-87
2022/12/18 09:14:09;;;;;;;19.50;9.05;;;-3.90;99.90;;;;;;5110629;28;20549;-87
2022/12/18 09:16:34;;;;;;;17.42;8.65;;;-3.80;99.90;;;;;;5092548;28;20401;-87
2022/12/18 09:19:02;;;;;;;18.63;8.38;;;-3.70;99.90;;;;;;5110988;28;20047;-87
2022/12/18 09:21:34;;;;;;;17.73;7.28;;;-3.60;99.90;;;;;;5094386;28;20118;-87
2022/12/18 09:23:59;;;;;;;15.70;8.05;;;-3.50;99.90;;;;;;5116609;27;20038;-87
2022/12/18 09:26:26;;;;;;;17.27;8.23;;;-3.50;99.90;;;;;;5123268;27;20039;-87
2022/12/18 09:28:52;;;;;;;17.60;7.75;;;-3.40;99.90;;;;;;5086969;28;20044;-87
2022/12/18 09:31:20;;;;;;;15.18;7.88;;;-3.40;99.90;;;;;;5090106;28;20043;-88
2022/12/18 09:33:46;;;;;;;17.17;8.52;;;-3.30;99.90;;;;;;5113032;28;20114;-88
2022/12/18 09:36:14;;;;;;;14.25;7.00;;;-3.20;99.90;;;;;;5130802;28;20127;-88
2022/12/18 09:38:40;;;;;;;15.90;7.40;;;-3.10;99.90;;;;;;5130884;28;20039;-88
2022/12/18 09:41:35;;;;;;;15.73;7.07;;;-3.00;99.90;;;;;;5130264;28;20035;-88
2022/12/18 09:44:13;;;;;;;11.93;6.55;;;-2.90;99.90;;;;;;5131050;28;20054;-88
2022/12/18 09:46:52;;;;;;;14.13;6.78;;;-2.80;99.90;;;;;;5130493;28;20058;-88
2022/12/18 09:49:22;;;;;;;17.20;7.00;;;-2.80;99.90;;;;;;5130553;28;20035;-89
2022/12/18 09:52:02;;;;;;;12.55;6.13;;;-2.70;99.90;;;;;;5130455;28;20070;-89
2022/12/18 09:54:44;;;;;;;12.48;5.90;;;-2.60;99.90;;;;;;5130149;28;20039;-89
2022/12/18 09:57:17;;;;;;;13.90;5.95;;;-2.60;99.90;;;;;;5103802;28;20089;-89
2022/12/18 09:59:46;;;;;;;12.65;6.03;;;-2.50;99.90;;;;;;5112519;28;20082;-89
2022/12/18 10:02:20;;;;;;;12.52;5.70;;;-2.40;99.90;;;;;;5116411;27;20042;-88
2022/12/18 10:05:10;;;;;;;14.48;7.05;;;-2.30;99.90;;;;;;5134051;27;20031;-89
2022/12/18 10:07:39;;;;;;;14.50;6.85;;;-2.30;99.90;;;;;;5134263;27;20399;-89
2022/12/18 10:10:35;;;;;;;12.27;6.50;;;-2.20;99.90;;;;;;5124206;27;20043;-88
2022/12/18 10:13:23;;;;;;;11.25;5.45;;;-2.10;99.90;;;;;;5119794;27;20544;-89
2022/12/18 10:16:07;;;;;;;11.30;5.25;;;-2.00;99.90;;;;;;5116227;27;20042;-89
2022/12/18 10:18:57;;;;;;;12.95;6.78;;;-1.90;99.90;;;;;;5134871;27;20043;-89
2022/12/18 10:21:44;;;;;;;11.60;5.32;;;-1.80;99.90;;;;;;5110276;27;20081;-89
2022/12/18 10:24:12;;;;;;;12.82;6.80;;;-1.70;99.90;;;;;;5116000;27;20074;-88
2022/12/18 10:26:39;;;;;;;11.90;5.63;;;-1.60;99.90;;;;;;5119301;27;20102;-88
2022/12/18 10:29:13;;;;;;;13.05;4.78;;;-1.60;99.90;;;;;;5113524;28;20035;-88
2022/12/18 10:31:38;;;;;;;11.38;5.70;;;-1.50;99.90;;;;;;5094544;28;20136;-89
2022/12/18 10:34:08;;;;;;;11.23;5.10;;;-1.50;99.90;;;;;;5098381;27;20070;-88
2022/12/18 10:36:34;;;;;;;11.27;5.10;;;-1.40;99.90;;;;;;5126291;27;20067;-89
2022/12/18 10:39:18;;;;;;;11.82;5.45;;;-1.40;99.90;;;;;;5139311;27;20525;-88
2022/12/18 10:41:44;;;;;;;10.25;4.63;;;-1.40;99.90;;;;;;5122172;27;20411;-89
2022/12/18 10:44:17;;;;;;;12.63;5.38;;;-1.30;99.90;;;;;;5140434;27;20035;-89
2022/12/18 10:46:45;;;;;;;10.82;4.88;;;-1.30;99.90;;;;;;5139834;27;20027;-88
2022/12/18 10:49:26;;;;;;;9.63;4.50;;;-1.20;99.90;;;;;;5142182;27;20050;-89
2022/12/18 10:52:17;;;;;;;9.13;4.38;;;-1.20;99.90;;;;;;5133288;27;20043;-89
2022/12/18 10:54:58;;;;;;;12.38;4.70;;;-1.10;99.90;;;;;;5130554;27;20122;-88
2022/12/18 10:57:26;;;;;;;9.85;4.53;;;-1.10;99.90;;;;;;5129522;27;20039;-89
2022/12/18 10:59:57;;;;;;;10.60;3.80;;;-1.10;99.90;;;;;;5144203;27;20046;-90
2022/12/18 11:02:34;;;;;;;10.80;4.45;;;-1.00;99.90;;;;;;5141743;27;20035;-89
2022/12/18 11:05:00;;;;;;;11.07;4.68;;;-1.00;99.90;;;;;;5113337;28;20035;-88
2022/12/18 11:07:25;;;;;;;11.60;4.57;;;-1.00;99.90;;;;;;5118739;27;20046;-88
2022/12/18 11:10:01;;;;;;;10.85;4.38;;;-1.00;99.90;;;;;;5112260;27;20372;-89
2022/12/18 11:12:28;;;;;;;10.23;4.93;;;-0.90;99.90;;;;;;5114699;27;20577;-90
2022/12/18 11:14:56;;;;;;;11.70;5.45;;;-0.90;99.90;;;;;;5123828;27;20035;-89
2022/12/18 11:17:28;;;;;;;10.07;4.28;;;-0.90;99.90;;;;;;5133849;27;20051;-90
2022/12/18 11:20:03;;;;;;;11.02;4.18;;;-0.80;99.90;;;;;;5124293;27;20044;-89
2022/12/18 11:22:35;;;;;;;10.10;4.38;;;-0.80;99.90;;;;;;5094643;28;20152;-90
2022/12/18 11:25:05;;;;;;;9.60;4.47;;;-0.70;99.90;;;;;;5113153;28;20043;-89
2022/12/18 11:27:31;;;;;;;10.60;4.75;;;-0.70;99.90;;;;;;5076517;28;20040;-89
2022/12/18 11:30:19;;;;;;;11.48;4.93;;;-0.70;99.90;;;;;;5094492;28;20042;-89
2022/12/18 11:32:49;;;;;;;11.15;5.25;;;-0.70;99.90;;;;;;5128080;27;20043;-88
2022/12/18 11:35:38;;;;;;;15.27;5.07;;;-0.60;99.90;;;;;;5133135;27;20623;-88
2022/12/18 11:38:12;;;;;;;11.45;4.88;;;-0.60;99.90;;;;;;5114625;27;20493;-88
2022/12/18 11:40:41;;;;;;;9.88;4.78;;;-0.50;99.90;;;;;;5133294;27;20035;-88
2022/12/18 11:43:14;;;;;;;12.57;4.35;;;-0.50;99.90;;;;;;5133048;27;20054;-89
2022/12/18 11:46:24;;;;;;;10.68;4.68;;;-0.40;99.90;;;;;;5105594;27;20483;-88
2022/12/18 11:48:57;;;;;;;9.40;4.07;;;-0.40;99.90;;;;;;5131547;27;20047;-88
2022/12/18 11:51:46;;;;;;;10.13;4.55;;;-0.40;99.90;;;;;;5104947;27;20125;-88
2022/12/18 11:54:14;;;;;;;10.98;5.10;;;-0.30;99.90;;;;;;5132206;27;20047;-88
2022/12/18 11:56:57;;;;;;;11.75;4.63;;;-0.30;99.90;;;;;;5113966;27;20053;-89
2022/12/18 11:59:32;;;;;;;10.02;4.40;;;-0.30;99.90;;;;;;5133119;27;20042;-88
2022/12/18 12:02:36;;;;;;;10.05;3.88;;;-0.30;99.90;;;;;;5132497;27;20039;-89
2022/12/18 12:05:32;;;;;;;12.20;5.43;;;-0.20;99.90;;;;;;5114843;27;20043;-89
2022/12/18 12:08:15;;;;;;;10.73;4.15;;;-0.20;99.90;;;;;;5120900;27;20043;-88
2022/12/18 12:11:21;;;;;;;10.60;4.27;;;-0.20;99.90;;;;;;5111690;28;20087;-89
2022/12/18 12:14:07;;;;;;;10.45;4.65;;;-0.20;99.90;;;;;;5066570;27;20355;-89
2022/12/18 12:17:07;;;;;;;12.60;4.82;;;-0.10;99.90;;;;;;5097405;27;20070;-89
2022/12/18 12:19:51;;;;;;;11.15;4.80;;;-0.10;99.90;;;;;;5128273;27;20035;-89
2022/12/18 12:22:46;;;;;;;11.68;4.57;;;-0.10;99.90;;;;;;5129890;27;20108;-88
2022/12/18 12:25:20;;;;;;;11.00;4.60;;;-0.10;99.90;;;;;;5136533;27;20102;-88
2022/12/18 12:28:30;;;;;;;11.85;5.05;;;-0.10;99.90;;;;;;5137529;27;20126;-89
2022/12/18 12:31:23;;;;;;;10.30;4.85;;;0.00;99.90;;;;;;5069424;27;20044;-89
2022/12/18 12:33:54;;;;;;;11.35;4.57;;;0.00;99.90;;;;;;5091715;28;20092;-88
2022/12/18 12:36:57;;;;;;;14.57;5.13;;;0.00;99.90;;;;;;5111750;28;20039;-89
2022/12/18 12:39:30;;;;;;;12.82;6.53;;;0.00;99.90;;;;;;5090151;27;20043;-88
2022/12/18 12:44:47;;;;;;;11.70;4.63;;;0.10;99.90;;;;;;5120720;27;20108;-88
2022/12/18 12:47:18;;;;;;;11.67;5.00;;;0.10;99.90;;;;;;5111620;28;20032;-88
2022/12/18 12:49:47;;;;;;;9.70;4.40;;;0.10;99.90;;;;;;5114106;27;20066;-89
2022/12/18 12:52:35;;;;;;;13.15;4.70;;;0.10;99.90;;;;;;5115466;27;20051;-89
2022/12/18 12:55:04;;;;;;;11.32;5.22;;;0.20;99.90;;;;;;5111143;28;20044;-89
2022/12/18 12:57:41;;;;;;;13.43;4.95;;;0.20;99.90;;;;;;5121695;27;20054;-89